createdAt,value
2023-04-23T00:00:12.990Z,99913.77
2023-04-23T00:03:06.401Z,99907.37
2023-04-23T00:06:18.037Z,99907.63
2023-04-23T00:09:08.956Z,99908.27
2023-04-23T00:12:03.176Z,99901.73
2023-04-23T00:14:54.597Z,99903.46
2023-04-23T00:17:45.047Z,99905.23
2023-04-23T00:20:35.903Z,99906.20
2023-04-23T00:23:26.591Z,99907.75
2023-04-23T00:26:20.064Z,99907.72
2023-04-23T00:29:10.787Z,99905.81
2023-04-23T00:32:22.823Z,99906.13
2023-04-23T00:35:20.873Z,99905.83
2023-04-23T00:38:11.499Z,99909.08
2023-04-23T00:41:04.936Z,99912.09
2023-04-23T00:44:08.979Z,99911.52
2023-04-23T00:47:12.392Z,99909.02
2023-04-23T00:50:08.925Z,99909.58
2023-04-23T00:53:09.077Z,99912.16
2023-04-23T00:56:19.700Z,99911.40
2023-04-23T00:59:21.241Z,99910.69
2023-04-23T01:02:21.764Z,99907.04
2023-04-23T01:05:23.326Z,99903.36
2023-04-23T01:08:27.611Z,99901.37
2023-04-23T01:11:37.369Z,99897.56
2023-04-23T01:14:48.420Z,99902.75
2023-04-23T01:17:52.259Z,99905.55
2023-04-23T01:20:48.266Z,99905.17
2023-04-23T01:23:38.581Z,99906.67
2023-04-23T01:26:49.069Z,99905.50
2023-04-23T01:29:59.744Z,99906.98
2023-04-23T01:33:10.685Z,99906.32
2023-04-23T01:36:03.954Z,99907.59
2023-04-23T01:39:15.890Z,99906.05
2023-04-23T01:42:20.868Z,99905.55
2023-04-23T01:45:12.669Z,99906.73
2023-04-23T01:48:21.965Z,99908.02
2023-04-23T01:51:32.552Z,99904.84
2023-04-23T01:54:25.679Z,99899.77
2023-04-23T01:57:29.392Z,99899.58
2023-04-23T02:00:20.833Z,99898.13
2023-04-23T02:03:23.890Z,99903.54
2023-04-23T02:06:34.777Z,99902.90
2023-04-23T02:09:28.272Z,99899.77
2023-04-23T02:12:29.671Z,99899.91
2023-04-23T02:15:22.587Z,99902.17
2023-04-23T02:18:33.136Z,99900.20
2023-04-23T02:21:33.389Z,99904.89
2023-04-23T02:24:23.600Z,99907.55
2023-04-23T02:27:23.972Z,99904.75
2023-04-23T02:30:14.882Z,99905.02
2023-04-23T02:33:05.407Z,99904.46
2023-04-23T02:35:55.718Z,99904.21
2023-04-23T02:39:06.520Z,99901.48
2023-04-23T02:42:17.280Z,99901.02
2023-04-23T02:45:27.697Z,99899.25
2023-04-23T02:48:22.483Z,99897.94
2023-04-23T02:51:27.531Z,99900.10
2023-04-23T02:54:28.882Z,99902.13
2023-04-23T02:57:19.412Z,99903.88
2023-04-23T03:00:30.294Z,99902.04
2023-04-23T03:03:39.923Z,99896.69
2023-04-23T03:06:35.892Z,99894.98
2023-04-23T03:09:45.637Z,99897.73
2023-04-23T03:12:56.564Z,99894.85
2023-04-23T03:15:47.046Z,99891.98
2023-04-23T03:18:39.730Z,99893.02
2023-04-23T03:21:33.266Z,99898.20
2023-04-23T03:24:43.985Z,99901.27
2023-04-23T03:27:40.315Z,99908.79
2023-04-23T03:30:41.741Z,99913.05
2023-04-23T03:33:39.873Z,99911.86
2023-04-23T03:36:41.040Z,99917.15
2023-04-23T03:39:44.670Z,99921.14
2023-04-23T03:42:55.246Z,99915.53
2023-04-23T03:46:06.751Z,99913.25
2023-04-23T03:49:05.077Z,99915.24
2023-04-23T03:52:07.424Z,99915.08
2023-04-23T03:55:12.354Z,99916.11
2023-04-23T03:58:07.148Z,99925.38
2023-04-23T04:01:15.570Z,99924.98
2023-04-23T04:04:11.276Z,99923.14
2023-04-23T04:07:14.746Z,99927.83
2023-04-23T04:10:24.247Z,99922.59
2023-04-23T04:13:24.625Z,99923.46
2023-04-23T04:16:19.685Z,99922.70
2023-04-23T04:19:30.272Z,99921.80
2023-04-23T04:22:41.192Z,99920.89
2023-04-23T04:25:31.713Z,99922.29
2023-04-23T04:28:25.369Z,99925.79
2023-04-23T04:31:20.634Z,99923.33
2023-04-23T04:34:18.238Z,99920.30
2023-04-23T04:37:11.724Z,99917.64
2023-04-23T04:40:02.764Z,99919.40
2023-04-23T04:42:53.204Z,99915.92
2023-04-23T04:46:07.514Z,99915.02
2023-04-23T04:49:19.817Z,99917.65
2023-04-23T04:52:30.698Z,99918.95
2023-04-23T04:55:21.092Z,99918.01
2023-04-23T04:58:30.268Z,99920.27
2023-04-23T05:01:31.289Z,99922.16
2023-04-23T05:04:24.881Z,99921.99
2023-04-23T05:07:15.404Z,99924.61
2023-04-23T05:10:09.079Z,99927.57
2023-04-23T05:13:02.012Z,99927.41
2023-04-23T05:15:52.537Z,99928.91
2023-04-23T05:19:03.058Z,99930.87
2023-04-23T05:21:53.428Z,99938.66
2023-04-23T05:24:47.099Z,99938.22
2023-04-23T05:27:57.929Z,99936.48
2023-04-23T05:30:48.607Z,99938.39
2023-04-23T05:33:49.291Z,99944.90
2023-04-23T05:36:43.366Z,99948.71
2023-04-23T05:39:46.901Z,99946.91
2023-04-23T05:42:58.585Z,99951.39
2023-04-23T05:45:51.633Z,99953.05
2023-04-23T05:48:45.190Z,99955.14
2023-04-23T05:51:55.673Z,99954.16
2023-04-23T05:55:06.883Z,99950.70
2023-04-23T05:58:19.325Z,99949.58
2023-04-23T06:01:22.985Z,99946.00
2023-04-23T06:04:24.559Z,99947.86
2023-04-23T06:07:28.687Z,99949.69
2023-04-23T06:10:30.197Z,99947.92
2023-04-23T06:13:30.983Z,99949.77
2023-04-23T06:16:34.356Z,99952.70
2023-04-23T06:19:38.353Z,99952.31
2023-04-23T06:22:41.510Z,99955.52
2023-04-23T06:25:40.987Z,99953.35
2023-04-23T06:28:33.674Z,99957.75
2023-04-23T06:31:57.529Z,99957.45
2023-04-23T06:35:00.034Z,99959.34
2023-04-23T06:38:11.987Z,99965.08
2023-04-23T06:41:10.088Z,99970.19
2023-04-23T06:44:03.572Z,99975.98
2023-04-23T06:47:13.842Z,99980.98
2023-04-23T06:50:10.678Z,99979.98
2023-04-23T06:53:03.490Z,99985.70
2023-04-23T06:56:02.856Z,99988.70
2023-04-23T06:59:02.393Z,99990.77
2023-04-23T07:01:55.965Z,99993.01
2023-04-23T07:04:51.300Z,99993.34
2023-04-23T07:07:43.562Z,99990.98
2023-04-23T07:10:37.340Z,99991.67
2023-04-23T07:13:27.983Z,99996.92
2023-04-23T07:16:24.112Z,100002.78
2023-04-23T07:19:25.512Z,100002.15
2023-04-23T07:22:19.153Z,100003.02
2023-04-23T07:25:10.058Z,100003.54
2023-04-23T07:28:00.750Z,100003.39
2023-04-23T07:30:51.040Z,100000.96
2023-04-23T07:33:41.521Z,100000.76
2023-04-23T07:36:32.291Z,100003.54
2023-04-23T07:39:22.987Z,100000.14
2023-04-23T07:42:13.271Z,99999.20
2023-04-23T07:45:03.658Z,100001.55
2023-04-23T07:47:54.000Z,100004.79
2023-04-23T07:50:44.751Z,100005.93
2023-04-23T07:53:35.133Z,100013.00
2023-04-23T07:56:26.285Z,100016.05
2023-04-23T07:59:16.650Z,100020.91
2023-04-23T08:02:07.021Z,100020.82
2023-04-23T08:04:57.500Z,100024.39
2023-04-23T08:07:47.851Z,100021.86
2023-04-23T08:10:38.186Z,100022.64
2023-04-23T08:13:28.374Z,100026.20
2023-04-23T08:16:21.785Z,100023.55
2023-04-23T08:19:14.647Z,100013.54
2023-04-23T08:22:04.981Z,100014.78
2023-04-23T08:24:55.268Z,100012.00
2023-04-23T08:27:45.448Z,100010.92
2023-04-23T08:30:35.768Z,100010.52
2023-04-23T08:33:26.197Z,100007.53
2023-04-23T08:36:16.561Z,100007.00
2023-04-23T08:39:13.941Z,99998.40
2023-04-23T08:42:06.873Z,99995.66
2023-04-23T08:44:56.951Z,99995.19
2023-04-23T08:47:47.105Z,99993.59
2023-04-23T08:50:38.496Z,99988.11
2023-04-23T08:53:29.305Z,99989.52
2023-04-23T08:56:21.170Z,99988.75
2023-04-23T08:59:12.186Z,99990.48
2023-04-23T09:02:10.465Z,99992.34
2023-04-23T09:05:01.271Z,99994.15
2023-04-23T09:07:51.459Z,99993.25
2023-04-23T09:10:42.311Z,99991.38
2023-04-23T09:13:33.198Z,99998.45
2023-04-23T09:16:23.492Z,100002.18
2023-04-23T09:19:13.956Z,100008.69
2023-04-23T09:22:04.195Z,100012.41
2023-04-23T09:24:55.568Z,100015.90
2023-04-23T09:27:46.490Z,100021.27
2023-04-23T09:30:40.175Z,100022.59
2023-04-23T09:33:31.175Z,100016.48
2023-04-23T09:36:23.989Z,100017.74
2023-04-23T09:39:15.012Z,100019.64
2023-04-23T09:42:08.652Z,100027.08
2023-04-23T09:44:59.837Z,100024.89
2023-04-23T09:47:55.387Z,100033.48
2023-04-23T09:50:45.978Z,100039.65
2023-04-23T09:53:43.509Z,100035.55
2023-04-23T09:56:34.117Z,100035.41
2023-04-23T09:59:39.530Z,100047.41
2023-04-23T10:02:40.224Z,100049.70
2023-04-23T10:05:45.282Z,100052.25
2023-04-23T10:08:44.474Z,100056.61
2023-04-23T10:11:34.989Z,100058.84
2023-04-23T10:14:25.624Z,100051.70
2023-04-23T10:17:15.853Z,100042.92
2023-04-23T10:20:08.506Z,100044.41
2023-04-23T10:22:58.914Z,100048.36
2023-04-23T10:25:49.201Z,100054.27
2023-04-23T10:28:41.070Z,100067.91
2023-04-23T10:31:34.025Z,100070.43
2023-04-23T10:34:25.021Z,100074.05
2023-04-23T10:37:16.501Z,100079.59
2023-04-23T10:40:12.705Z,100081.42
2023-04-23T10:43:03.227Z,100088.80
2023-04-23T10:45:54.038Z,100091.58
2023-04-23T10:49:03.799Z,100096.06
2023-04-23T10:55:00.237Z,100096.11
2023-04-23T10:58:01.737Z,100091.58
2023-04-23T11:00:53.805Z,100093.85
2023-04-23T11:03:44.993Z,100100.55
2023-04-23T11:06:55.230Z,100105.55
2023-04-23T11:09:47.631Z,100102.60
2023-04-23T11:12:40.091Z,100101.10
2023-04-23T11:15:31.735Z,100101.98
2023-04-23T11:18:25.685Z,100104.39
2023-04-23T11:21:16.089Z,100109.21
2023-04-23T11:24:08.318Z,100117.04
2023-04-23T11:26:58.860Z,100117.98
2023-04-23T11:29:49.435Z,100122.20
2023-04-23T11:32:39.863Z,100127.90
2023-04-23T11:35:32.524Z,100133.42
2023-04-23T11:38:23.024Z,100136.02
2023-04-23T11:41:14.032Z,100141.10
2023-04-23T11:44:04.992Z,100146.51
2023-04-23T11:46:58.407Z,100151.24
2023-04-23T11:49:49.895Z,100156.17
2023-04-23T11:52:40.008Z,100156.00
2023-04-23T11:55:33.569Z,100155.06
2023-04-23T11:58:23.884Z,100155.02
2023-04-23T12:01:14.132Z,100154.72
2023-04-23T12:04:13.566Z,100159.31
2023-04-23T12:07:12.785Z,100158.77
2023-04-23T12:10:10.973Z,100156.59
2023-04-23T12:13:01.219Z,100155.25
2023-04-23T12:15:52.451Z,100158.31
2023-04-23T12:18:44.518Z,100160.39
2023-04-23T12:21:34.827Z,100159.77
2023-04-23T12:24:26.305Z,100155.42
2023-04-23T12:27:20.398Z,100151.06
2023-04-23T12:30:12.060Z,100148.54
2023-04-23T12:33:02.649Z,100144.27
2023-04-23T12:35:53.405Z,100135.55
2023-04-23T12:38:43.772Z,100130.06
2023-04-23T12:41:33.875Z,100132.99
2023-04-23T12:44:24.030Z,100130.18
2023-04-23T12:47:15.906Z,100133.54
2023-04-23T12:50:06.885Z,100131.75
2023-04-23T12:52:57.005Z,100132.08
2023-04-23T12:55:48.538Z,100134.24
2023-04-23T12:58:38.789Z,100132.49
2023-04-23T13:01:29.219Z,100131.71
2023-04-23T13:04:19.481Z,100138.81
2023-04-23T13:07:10.329Z,100149.06
2023-04-23T13:10:00.662Z,100153.17
2023-04-23T13:12:50.750Z,100154.54
2023-04-23T13:15:41.224Z,100157.37
2023-04-23T13:18:31.599Z,100153.42
2023-04-23T13:21:21.899Z,100150.91
2023-04-23T13:24:12.098Z,100150.56
2023-04-23T13:27:02.924Z,100157.29
2023-04-23T13:29:53.161Z,100164.88
2023-04-23T13:32:43.355Z,100170.61
2023-04-23T13:35:33.490Z,100174.95
2023-04-23T13:38:23.787Z,100177.92
2023-04-23T13:41:14.264Z,100178.89
2023-04-23T13:44:04.855Z,100180.89
2023-04-23T13:46:57.298Z,100177.42
2023-04-23T13:49:47.502Z,100178.67
2023-04-23T13:52:39.445Z,100176.14
2023-04-23T13:55:29.952Z,100171.92
2023-04-23T13:58:20.337Z,100167.68
2023-04-23T14:01:12.039Z,100169.34
2023-04-23T14:04:04.233Z,100165.45
2023-04-23T14:06:54.601Z,100170.02
2023-04-23T14:09:46.661Z,100168.89
2023-04-23T14:12:36.813Z,100171.56
2023-04-23T14:15:27.076Z,100172.11
2023-04-23T14:18:17.372Z,100175.26
2023-04-23T14:21:07.808Z,100172.91
2023-04-23T14:24:02.446Z,100174.12
2023-04-23T14:26:52.908Z,100175.71
2023-04-23T14:29:47.441Z,100181.13
2023-04-23T14:32:37.696Z,100182.47
2023-04-23T14:35:39.561Z,100185.83
2023-04-23T14:38:33.190Z,100190.41
2023-04-23T14:41:23.657Z,100195.02
2023-04-23T14:44:13.975Z,100210.05
2023-04-23T14:47:04.110Z,100225.47
2023-04-23T14:49:54.321Z,100236.94
2023-04-23T14:52:46.750Z,100240.30
2023-04-23T14:55:37.158Z,100238.63
2023-04-23T14:58:27.301Z,100248.12
2023-04-23T15:01:17.661Z,100256.39
2023-04-23T15:04:08.172Z,100266.02
2023-04-23T15:06:59.560Z,100275.69
2023-04-23T15:09:51.932Z,100277.59
2023-04-23T15:12:49.681Z,100277.41
2023-04-23T15:15:45.412Z,100276.91
2023-04-23T15:18:35.840Z,100273.50
2023-04-23T15:21:26.463Z,100275.73
2023-04-23T15:24:16.799Z,100278.49
2023-04-23T15:27:08.457Z,100278.43
2023-04-23T15:29:59.149Z,100279.56
2023-04-23T15:32:49.388Z,100286.48
2023-04-23T15:35:41.402Z,100278.70
2023-04-23T15:38:31.552Z,100277.59
2023-04-23T15:41:21.833Z,100278.71
2023-04-23T15:44:12.831Z,100284.59
2023-04-23T15:47:03.545Z,100287.11
2023-04-23T15:49:53.682Z,100288.67
2023-04-23T15:52:44.235Z,100283.75
2023-04-23T15:55:34.732Z,100279.94
2023-04-23T15:58:24.915Z,100277.10
2023-04-23T16:01:15.091Z,100277.83
2023-04-23T16:04:11.213Z,100278.27
2023-04-23T16:07:02.004Z,100276.46
2023-04-23T16:09:52.293Z,100279.27
2023-04-23T16:12:45.689Z,100281.23
2023-04-23T16:15:36.078Z,100278.92
2023-04-23T16:18:26.308Z,100283.50
2023-04-23T16:21:16.601Z,100285.14
2023-04-23T16:24:08.049Z,100286.70
2023-04-23T16:26:58.231Z,100291.19
2023-04-23T16:29:48.494Z,100291.56
2023-04-23T16:32:38.673Z,100293.75
2023-04-23T16:35:29.074Z,100295.72
2023-04-23T16:38:19.208Z,100297.52
2023-04-23T16:41:09.437Z,100302.35
2023-04-23T16:44:02.460Z,100299.05
2023-04-23T16:46:53.785Z,100300.56
2023-04-23T16:49:43.950Z,100306.42
2023-04-23T16:52:34.293Z,100307.84
2023-04-23T16:55:27.814Z,100306.26
2023-04-23T16:58:18.953Z,100301.81
2023-04-23T17:01:09.804Z,100301.64
2023-04-23T17:04:00.262Z,100306.23
2023-04-23T17:06:51.007Z,100306.38
2023-04-23T17:09:41.225Z,100300.45
2023-04-23T17:12:31.557Z,100304.20
2023-04-23T17:15:22.908Z,100306.17
2023-04-23T17:18:15.938Z,100304.88
2023-04-23T17:21:06.650Z,100305.86
2023-04-23T17:23:56.902Z,100311.02
2023-04-23T17:26:49.278Z,100312.23
2023-04-23T17:29:39.464Z,100312.91
2023-04-23T17:32:30.175Z,100309.38
2023-04-23T17:35:20.641Z,100301.17
2023-04-23T17:38:11.248Z,100304.27
2023-04-23T17:41:01.493Z,100306.15
2023-04-23T17:43:51.660Z,100308.95
2023-04-23T17:46:42.110Z,100312.83
2023-04-23T17:49:32.265Z,100313.96
2023-04-23T17:52:22.451Z,100313.46
2023-04-23T17:55:13.089Z,100317.11
2023-04-23T17:58:05.803Z,100320.88
2023-04-23T18:00:56.394Z,100320.53
2023-04-23T18:03:48.223Z,100319.12
2023-04-23T18:06:38.513Z,100320.60
2023-04-23T18:09:29.310Z,100321.77
2023-04-23T18:12:19.574Z,100327.66
2023-04-23T18:15:12.559Z,100328.88
2023-04-23T18:18:03.706Z,100334.35
2023-04-23T18:20:53.936Z,100336.53
2023-04-23T18:23:44.186Z,100336.48
2023-04-23T18:26:34.419Z,100338.00
2023-04-23T18:29:25.493Z,100341.41
2023-04-23T18:32:27.472Z,100343.23
2023-04-23T18:35:21.937Z,100344.02
2023-04-23T18:38:23.514Z,100350.39
2023-04-23T18:41:14.111Z,100359.20
2023-04-23T18:44:04.336Z,100361.27
2023-04-23T18:46:55.252Z,100363.23
2023-04-23T18:49:53.841Z,100357.90
2023-04-23T18:52:44.237Z,100363.05
2023-04-23T18:55:34.487Z,100367.67
2023-04-23T18:58:30.160Z,100374.94
2023-04-23T19:01:20.985Z,100375.48
2023-04-23T19:04:11.341Z,100377.64
2023-04-23T19:07:01.571Z,100380.10
2023-04-23T19:09:51.923Z,100383.51
2023-04-23T19:12:42.008Z,100384.99
2023-04-23T19:15:32.534Z,100390.41
2023-04-23T19:18:23.158Z,100395.18
2023-04-23T19:21:16.729Z,100395.17
2023-04-23T19:24:07.394Z,100390.96
2023-04-23T19:26:58.127Z,100398.86
2023-04-23T19:29:49.392Z,100406.30
2023-04-23T19:32:39.875Z,100414.37
2023-04-23T19:35:30.357Z,100416.85
2023-04-23T19:38:20.718Z,100420.13
2023-04-23T19:41:11.404Z,100428.48
2023-04-23T19:44:01.865Z,100431.86
2023-04-23T19:46:51.965Z,100433.41
2023-04-23T19:49:42.608Z,100436.59
2023-04-23T19:52:33.048Z,100442.03
2023-04-23T19:55:27.233Z,100447.04
2023-04-23T19:58:20.801Z,100446.34
2023-04-23T20:01:11.375Z,100446.30
2023-04-23T20:04:01.933Z,100448.34
2023-04-23T20:06:52.176Z,100452.34
2023-04-23T20:09:42.921Z,100458.92
2023-04-23T20:12:34.121Z,100461.91
2023-04-23T20:15:34.613Z,100468.32
2023-04-23T20:18:25.731Z,100471.38
2023-04-23T20:21:16.197Z,100474.85
2023-04-23T20:24:09.019Z,100477.29
2023-04-23T20:26:59.284Z,100477.11
2023-04-23T20:29:50.385Z,100475.81
2023-04-23T20:32:40.541Z,100480.79
2023-04-23T20:35:31.712Z,100483.49
2023-04-23T20:38:21.865Z,100489.74
2023-04-23T20:41:12.230Z,100498.55
2023-04-23T20:44:03.417Z,100495.13
2023-04-23T20:46:53.864Z,100494.73
2023-04-23T20:49:48.043Z,100495.19
2023-04-23T20:52:38.721Z,100497.63
2023-04-23T20:55:28.990Z,100499.27
2023-04-23T20:58:19.243Z,100499.74
2023-04-23T21:01:11.492Z,100505.92
2023-04-23T21:04:02.519Z,100507.13
2023-04-23T21:07:03.091Z,100508.85
2023-04-23T21:09:56.089Z,100511.89
2023-04-23T21:12:46.848Z,100519.42
2023-04-23T21:15:37.590Z,100520.14
2023-04-23T21:18:27.978Z,100521.19
2023-04-23T21:21:18.950Z,100523.61
2023-04-23T21:24:09.236Z,100523.55
2023-04-23T21:26:59.606Z,100523.11
2023-04-23T21:29:49.891Z,100520.41
2023-04-23T21:32:52.166Z,100522.23
2023-04-23T21:35:42.512Z,100523.88
2023-04-23T21:38:33.673Z,100525.88
2023-04-23T21:41:24.613Z,100527.63
2023-04-23T21:44:14.946Z,100528.80
2023-04-23T21:47:08.337Z,100527.52
2023-04-23T21:50:01.624Z,100529.59
2023-04-23T21:52:53.456Z,100530.45
2023-04-23T21:55:43.744Z,100531.17
2023-04-23T21:58:35.306Z,100532.42
2023-04-23T22:01:25.840Z,100532.31
2023-04-23T22:04:16.354Z,100532.09
2023-04-23T22:07:12.623Z,100534.83
2023-04-23T22:10:02.898Z,100527.70
2023-04-23T22:12:53.260Z,100528.57
2023-04-23T22:15:44.407Z,100529.13
2023-04-23T22:18:38.924Z,100528.70
2023-04-23T22:21:29.523Z,100531.48
2023-04-23T22:24:23.696Z,100528.79
2023-04-23T22:27:13.907Z,100529.15
2023-04-23T22:30:04.923Z,100530.44
2023-04-23T22:32:55.821Z,100528.30
2023-04-23T22:36:07.008Z,100526.80
2023-04-23T22:39:01.313Z,100532.14
2023-04-23T22:42:13.476Z,100530.49
2023-04-23T22:45:04.836Z,100529.11
2023-04-23T22:48:04.407Z,100531.28
2023-04-23T22:50:54.898Z,100538.23
2023-04-23T22:53:45.259Z,100537.45
2023-04-23T22:56:37.660Z,100536.83
2023-04-23T22:59:29.934Z,100539.01
2023-04-23T23:02:20.509Z,100541.69
2023-04-23T23:05:11.217Z,100542.20
2023-04-23T23:08:02.280Z,100541.24
2023-04-23T23:10:54.980Z,100542.63
2023-04-23T23:13:48.076Z,100544.84
2023-04-23T23:16:38.557Z,100547.29
2023-04-23T23:19:31.118Z,100550.48
2023-04-23T23:22:21.377Z,100549.73
2023-04-23T23:25:12.125Z,100552.33
2023-04-23T23:28:02.415Z,100556.52
2023-04-23T23:30:53.853Z,100557.97
2023-04-23T23:33:44.238Z,100559.50
2023-04-23T23:36:35.181Z,100556.80
2023-04-23T23:39:25.478Z,100554.16
2023-04-23T23:42:15.878Z,100555.11
2023-04-23T23:45:07.187Z,100557.39
2023-04-23T23:47:57.332Z,100556.54
2023-04-23T23:50:47.580Z,100558.48
2023-04-23T23:53:37.825Z,100559.95
2023-04-23T23:56:28.355Z,100560.04
2023-04-23T23:59:18.716Z,100560.11
